createdAt,value
2018-04-15T00:01:52.974Z,63.97
2018-04-15T00:04:19.197Z,62.20
2018-04-15T00:06:45.472Z,66.77
2018-04-15T00:09:11.684Z,57.80
2018-04-15T00:11:37.952Z,74.83
2018-04-15T00:14:04.212Z,73.70
2018-04-15T00:16:30.428Z,72.17
2018-04-15T00:18:57.455Z,80.73
2018-04-15T00:21:23.632Z,68.17
2018-04-15T00:23:49.868Z,66.40
2018-04-15T00:26:16.112Z,58.90
2018-04-15T00:28:42.329Z,64.30
2018-04-15T00:31:08.496Z,60.30
2018-04-15T00:33:34.751Z,67.90
2018-04-15T00:36:00.883Z,61.60
2018-04-15T00:38:27.109Z,65.60
2018-04-15T00:40:53.376Z,68.77
2018-04-15T00:43:19.591Z,75.27
2018-04-15T00:45:45.856Z,79.00
2018-04-15T00:48:12.103Z,67.17
2018-04-15T00:50:39.039Z,77.47
2018-04-15T00:53:05.283Z,80.33
2018-04-15T00:55:32.248Z,62.87
2018-04-15T00:57:58.496Z,72.93
2018-04-15T01:00:24.743Z,67.00
2018-04-15T01:02:50.973Z,65.17
2018-04-15T01:05:17.221Z,65.20
2018-04-15T01:07:43.472Z,57.13
2018-04-15T01:10:10.479Z,74.70
2018-04-15T01:12:37.376Z,73.57
2018-04-15T01:15:05.082Z,66.13
2018-04-15T01:17:31.291Z,61.90
2018-04-15T01:19:57.541Z,61.87
2018-04-15T01:22:23.803Z,72.90
2018-04-15T01:24:50.743Z,92.30
2018-04-15T01:27:17.027Z,83.53
2018-04-15T01:29:43.215Z,80.57
2018-04-15T01:32:10.188Z,70.87
2018-04-15T01:34:36.439Z,71.23
2018-04-15T01:37:03.399Z,74.20
2018-04-15T01:39:29.650Z,71.03
2018-04-15T01:41:55.868Z,75.80
2018-04-15T01:44:22.107Z,65.20
2018-04-15T01:46:48.255Z,74.93
2018-04-15T01:49:15.247Z,61.50
2018-04-15T01:51:41.492Z,62.83
2018-04-15T01:54:07.695Z,56.70
2018-04-15T01:56:33.836Z,66.47
2018-04-15T01:59:00.093Z,72.80
2018-04-15T02:01:27.023Z,74.53
2018-04-15T02:03:53.209Z,74.33
2018-04-15T02:06:19.457Z,65.83
2018-04-15T02:08:45.655Z,63.53
2018-04-15T02:11:11.817Z,72.87
2018-04-15T02:13:38.060Z,78.23
2018-04-15T02:16:04.340Z,71.40
2018-04-15T02:18:30.551Z,75.30
2018-04-15T02:20:57.508Z,68.47
2018-04-15T02:23:23.776Z,67.97
2018-04-15T02:25:50.003Z,73.90
2018-04-15T02:28:16.940Z,91.23
2018-04-15T02:30:43.204Z,77.13
2018-04-15T02:33:09.419Z,78.53
2018-04-15T02:35:35.579Z,75.30
2018-04-15T02:38:02.535Z,92.30
2018-04-15T02:40:28.782Z,92.93
2018-04-15T02:42:55.037Z,102.20
2018-04-15T02:45:21.248Z,102.97
2018-04-15T02:47:48.131Z,89.93
2018-04-15T02:50:14.367Z,88.20
2018-04-15T02:52:40.597Z,83.27
2018-04-15T02:55:08.082Z,86.40
2018-04-15T02:57:34.331Z,73.60
2018-04-15T03:00:00.605Z,80.00
2018-04-15T03:02:26.828Z,82.57
2018-04-15T03:04:53.048Z,84.97
2018-04-15T03:07:19.325Z,96.13
2018-04-15T03:09:46.239Z,100.93
2018-04-15T03:12:12.375Z,105.93
2018-04-15T03:14:38.511Z,98.70
2018-04-15T03:17:04.683Z,106.60
2018-04-15T03:19:31.147Z,107.37
2018-04-15T03:21:57.339Z,104.30
2018-04-15T03:24:23.519Z,108.00
2018-04-15T03:26:50.451Z,103.53
2018-04-15T03:29:17.424Z,108.10
2018-04-15T03:31:43.644Z,98.20
2018-04-15T03:34:10.616Z,115.60
2018-04-15T03:36:36.871Z,111.50
2018-04-15T03:39:03.128Z,101.77
2018-04-15T03:41:29.342Z,99.77
2018-04-15T03:43:56.576Z,103.30
2018-04-15T03:46:22.739Z,90.33
2018-04-15T03:48:50.341Z,106.40
2018-04-15T03:51:16.564Z,100.60
2018-04-15T03:53:42.792Z,104.60
2018-04-15T03:56:08.961Z,83.87
2018-04-15T03:58:35.192Z,94.83
2018-04-15T04:01:01.444Z,97.57
2018-04-15T04:03:28.387Z,97.60
2018-04-15T04:05:55.355Z,96.67
2018-04-15T04:08:21.607Z,102.20
2018-04-15T04:10:47.839Z,101.80
2018-04-15T04:13:14.108Z,95.93
2018-04-15T04:15:40.360Z,96.50
2018-04-15T04:18:19.625Z,97.27
2018-04-15T04:20:58.039Z,97.43
2018-04-15T04:23:37.740Z,95.17
2018-04-15T04:26:04.715Z,99.93
2018-04-15T04:28:30.893Z,104.53
2018-04-15T04:30:57.101Z,93.37
2018-04-15T04:33:23.352Z,90.93
2018-04-15T04:35:49.600Z,99.27
2018-04-15T04:38:16.547Z,91.13
2018-04-15T04:40:43.551Z,94.80
2018-04-15T04:43:09.769Z,93.53
2018-04-15T04:45:35.991Z,99.10
2018-04-15T04:48:02.235Z,96.70
2018-04-15T04:50:28.484Z,88.13
2018-04-15T04:52:54.719Z,88.90
2018-04-15T04:55:20.962Z,96.77
2018-04-15T04:57:47.944Z,100.87
2018-04-15T05:00:14.147Z,101.10
2018-04-15T05:02:40.289Z,88.23
2018-04-15T05:05:06.450Z,92.27
2018-04-15T05:07:32.681Z,107.13
2018-04-15T05:09:58.956Z,87.37
2018-04-15T05:12:25.880Z,96.27
2018-04-15T05:14:52.019Z,83.93
2018-04-15T05:17:18.999Z,79.93
2018-04-15T05:19:45.811Z,86.97
2018-04-15T05:22:12.707Z,76.90
2018-04-15T05:24:38.952Z,90.90
2018-04-15T05:27:05.195Z,87.73
2018-04-15T05:29:31.424Z,75.93
2018-04-15T05:31:57.680Z,85.37
2018-04-15T05:34:23.911Z,76.63
2018-04-15T05:36:50.199Z,70.53
2018-04-15T05:39:16.400Z,76.47
2018-04-15T05:41:42.627Z,73.93
2018-04-15T05:44:08.802Z,86.43
2018-04-15T05:46:35.792Z,74.87
2018-04-15T05:49:01.971Z,74.73
2018-04-15T05:51:28.144Z,71.97
2018-04-15T05:53:54.378Z,75.43
2018-04-15T05:56:20.599Z,78.50
2018-04-15T05:58:46.757Z,71.67
2018-04-15T06:01:13.004Z,68.33
2018-04-15T06:03:39.227Z,83.73
2018-04-15T06:06:05.371Z,92.70
2018-04-15T06:08:32.390Z,80.13
2018-04-15T06:10:58.567Z,75.33
2018-04-15T06:13:24.706Z,83.97
2018-04-15T06:15:50.900Z,84.70
2018-04-15T06:18:17.804Z,76.90
2018-04-15T06:20:43.983Z,79.27
2018-04-15T06:23:10.907Z,88.90
2018-04-15T06:25:37.872Z,76.70
2018-04-15T06:28:04.140Z,75.87
2018-04-15T06:30:30.379Z,81.23
2018-04-15T06:32:56.603Z,84.47
2018-04-15T06:35:23.588Z,74.37
2018-04-15T06:37:50.543Z,72.20
2018-04-15T06:40:17.484Z,78.00
2018-04-15T06:42:44.477Z,81.00
2018-04-15T06:45:10.708Z,80.50
2018-04-15T06:47:36.935Z,69.90
2018-04-15T06:50:03.204Z,66.00
2018-04-15T06:52:30.127Z,75.47
2018-04-15T06:54:56.409Z,77.17
2018-04-15T06:57:22.612Z,73.63
2018-04-15T06:59:49.574Z,74.07
2018-04-15T07:02:16.541Z,72.47
2018-04-15T07:04:42.779Z,74.30
2018-04-15T07:07:09.059Z,67.17
2018-04-15T07:09:36.037Z,78.53
2018-04-15T07:12:02.240Z,65.53
2018-04-15T07:14:29.196Z,75.03
2018-04-15T07:16:56.145Z,75.80
2018-04-15T07:19:22.400Z,73.57
2018-04-15T07:21:48.631Z,81.60
2018-04-15T07:24:14.888Z,71.33
2018-04-15T07:26:41.096Z,69.60
2018-04-15T07:29:07.237Z,67.47
2018-04-15T07:31:33.396Z,69.53
2018-04-15T07:34:00.396Z,70.27
2018-04-15T07:36:26.597Z,70.63
2018-04-15T07:38:52.831Z,69.63
2018-04-15T07:41:19.047Z,65.87
2018-04-15T07:43:45.203Z,68.73
2018-04-15T07:46:11.374Z,72.03
2018-04-15T07:48:38.480Z,62.47
2018-04-15T07:51:04.794Z,64.23
2018-04-15T07:53:31.016Z,75.20
2018-04-15T07:55:57.244Z,69.83
2018-04-15T07:58:23.391Z,68.57
2018-04-15T08:00:49.647Z,66.90
2018-04-15T08:03:15.884Z,73.03
2018-04-15T08:05:42.483Z,72.23
2018-04-15T08:08:08.654Z,62.33
2018-04-15T08:10:34.811Z,65.20
2018-04-15T08:13:01.048Z,65.67
2018-04-15T08:15:27.307Z,67.63
2018-04-15T08:17:53.533Z,77.27
2018-04-15T08:20:19.655Z,67.70
2018-04-15T08:22:45.863Z,66.27
2018-04-15T08:25:12.071Z,70.03
2018-04-15T08:27:39.020Z,70.10
2018-04-15T08:30:05.405Z,77.87
2018-04-15T08:32:31.595Z,72.17
2018-04-15T08:34:57.727Z,69.47
2018-04-15T08:37:23.888Z,74.87
2018-04-15T08:39:50.116Z,69.13
2018-04-15T08:42:16.308Z,68.83
2018-04-15T08:44:42.495Z,70.93
2018-04-15T08:47:09.356Z,74.80
2018-04-15T08:49:35.514Z,74.03
2018-04-15T08:52:02.059Z,80.70
2018-04-15T08:54:28.324Z,80.07
2018-04-15T08:56:54.536Z,86.43
2018-04-15T08:59:20.802Z,93.40
2018-04-15T09:01:47.019Z,83.87
2018-04-15T09:04:13.983Z,88.93
2018-04-15T09:06:40.131Z,81.77
2018-04-15T09:09:06.431Z,78.80
2018-04-15T09:11:32.628Z,87.07
2018-04-15T09:14:00.306Z,79.10
2018-04-15T09:16:27.260Z,93.20
2018-04-15T09:18:54.207Z,84.20
2018-04-15T09:21:21.144Z,82.60
2018-04-15T09:23:48.139Z,79.93
2018-04-15T09:26:14.379Z,88.30
2018-04-15T09:28:40.604Z,79.50
2018-04-15T09:31:11.806Z,79.90
2018-04-15T09:33:38.014Z,89.00
2018-04-15T09:36:05.009Z,84.67
2018-04-15T09:38:31.220Z,68.57
2018-04-15T09:40:57.452Z,78.87
2018-04-15T09:43:23.610Z,73.67
2018-04-15T09:45:49.824Z,72.03
2018-04-15T09:48:15.991Z,82.10
2018-04-15T09:50:42.104Z,75.23
2018-04-15T09:53:08.246Z,75.80
2018-04-15T09:55:35.236Z,71.57
2018-04-15T09:58:01.572Z,62.50
2018-04-15T10:00:28.232Z,69.23
2018-04-15T10:02:54.458Z,64.60
2018-04-15T10:05:20.716Z,69.37
2018-04-15T10:07:46.928Z,63.93
2018-04-15T10:10:13.088Z,70.60
2018-04-15T10:15:30.691Z,70.07
2018-04-15T10:17:56.903Z,72.97
2018-04-15T10:20:23.028Z,92.87
2018-04-15T10:22:49.201Z,72.53
2018-04-15T10:25:16.145Z,73.13
2018-04-15T10:27:43.135Z,72.03
2018-04-15T10:30:09.347Z,68.10
2018-04-15T10:32:35.585Z,73.83
2018-04-15T10:35:01.736Z,69.67
2018-04-15T10:37:28.703Z,70.80
2018-04-15T10:39:55.005Z,78.30
2018-04-15T10:42:21.175Z,85.73
2018-04-15T10:44:47.405Z,68.13
2018-04-15T10:47:14.388Z,88.30
2018-04-15T10:49:40.616Z,79.57
2018-04-15T10:52:06.879Z,81.03
2018-04-15T10:54:33.123Z,82.83
2018-04-15T10:56:59.340Z,80.47
2018-04-15T10:59:25.493Z,75.80
2018-04-15T11:01:52.440Z,76.80
2018-04-15T11:04:19.325Z,71.30
2018-04-15T11:06:45.536Z,75.80
2018-04-15T11:09:11.724Z,76.90
2018-04-15T11:11:37.937Z,75.40
2018-04-15T11:14:04.248Z,76.27
2018-04-15T11:16:30.475Z,70.03
2018-04-15T11:18:56.639Z,80.63
2018-04-15T11:21:22.812Z,76.40
2018-04-15T11:23:49.049Z,77.60
2018-04-15T11:26:15.281Z,70.13
2018-04-15T11:28:41.423Z,73.93
2018-04-15T11:31:07.660Z,76.67
2018-04-15T11:33:33.823Z,67.73
2018-04-15T11:36:00.748Z,70.30
2018-04-15T11:38:26.909Z,72.27
2018-04-15T11:40:53.143Z,74.33
2018-04-15T11:43:19.276Z,70.03
2018-04-15T11:45:45.431Z,70.40
2018-04-15T11:48:11.655Z,68.97
2018-04-15T11:50:37.815Z,75.13
2018-04-15T11:53:04.046Z,77.07
2018-04-15T11:55:31.040Z,80.87
2018-04-15T11:57:57.243Z,78.33
2018-04-15T12:00:23.387Z,91.63
2018-04-15T12:02:49.528Z,72.23
2018-04-15T12:05:15.704Z,68.47
2018-04-15T12:07:42.627Z,73.67
2018-04-15T12:10:08.808Z,66.33
2018-04-15T12:12:35.756Z,66.37
2018-04-15T12:15:16.939Z,66.47
2018-04-15T12:17:43.165Z,54.90
2018-04-15T12:20:09.305Z,53.37
2018-04-15T12:22:35.483Z,61.20
2018-04-15T12:25:02.407Z,65.83
2018-04-15T12:27:28.556Z,61.40
2018-04-15T12:29:55.526Z,59.97
2018-04-15T12:32:21.743Z,55.93
2018-04-15T12:34:47.915Z,60.93
2018-04-15T12:37:14.128Z,62.03
2018-04-15T12:39:40.270Z,59.17
2018-04-15T12:42:06.452Z,55.83
2018-04-15T12:44:32.720Z,52.90
2018-04-15T12:46:58.899Z,49.67
2018-04-15T12:49:25.864Z,49.67
2018-04-15T12:51:52.096Z,45.17
2018-04-15T12:54:18.252Z,44.33
2018-04-15T12:56:44.512Z,43.03
2018-04-15T12:59:10.733Z,40.20
2018-04-15T13:01:36.983Z,43.47
2018-04-15T13:04:03.224Z,36.03
2018-04-15T13:06:29.472Z,34.40
2018-04-15T13:08:55.587Z,33.97
2018-04-15T13:11:21.766Z,34.80
2018-04-15T13:13:47.867Z,31.43
2018-04-15T13:16:14.020Z,34.97
2018-04-15T13:18:40.152Z,31.77
2018-04-15T13:21:06.316Z,32.50
2018-04-15T13:23:32.501Z,37.03
2018-04-15T13:25:58.648Z,34.40
2018-04-15T13:28:25.540Z,28.90
2018-04-15T13:30:51.668Z,27.80
2018-04-15T13:33:17.799Z,31.53
2018-04-15T13:35:44.695Z,35.47
2018-04-15T13:38:11.557Z,34.57
2018-04-15T13:40:37.775Z,32.10
2018-04-15T13:43:03.899Z,32.03
2018-04-15T13:45:30.056Z,25.30
2018-04-15T13:47:56.248Z,27.07
2018-04-15T13:50:22.459Z,24.30
2018-04-15T13:52:49.407Z,26.97
2018-04-15T13:55:16.312Z,28.90
2018-04-15T13:57:42.455Z,27.07
2018-04-15T14:00:08.644Z,32.80
2018-04-15T14:02:34.796Z,30.17
2018-04-15T14:05:01.880Z,28.73
2018-04-15T14:07:29.057Z,26.30
2018-04-15T14:09:55.239Z,27.53
2018-04-15T14:12:21.490Z,26.50
2018-04-15T14:14:48.411Z,28.70
2018-04-15T14:17:14.644Z,23.63
2018-04-15T14:19:40.884Z,26.63
2018-04-15T14:22:07.771Z,24.70
2018-04-15T14:24:35.295Z,25.40
2018-04-15T14:27:02.232Z,28.63
2018-04-15T14:29:29.212Z,27.10
2018-04-15T14:31:55.484Z,24.40
2018-04-15T14:34:21.624Z,25.90
2018-04-15T14:36:47.905Z,30.27
2018-04-15T14:39:14.148Z,25.33
2018-04-15T14:41:40.356Z,26.83
2018-04-15T14:44:06.532Z,25.10
2018-04-15T14:46:32.766Z,26.00
2018-04-15T14:48:59.054Z,20.97
2018-04-15T14:51:25.248Z,23.70
2018-04-15T14:53:52.156Z,21.93
2018-04-15T14:56:18.408Z,21.50
2018-04-15T14:58:45.337Z,20.63
2018-04-15T15:01:11.584Z,18.13
2018-04-15T15:03:38.475Z,32.93
2018-04-15T15:06:04.689Z,22.23
2018-04-15T15:08:30.912Z,21.60
2018-04-15T15:10:57.072Z,22.60
2018-04-15T15:13:23.317Z,22.90
2018-04-15T15:15:49.554Z,21.07
2018-04-15T15:18:16.323Z,24.70
2018-04-15T15:20:43.479Z,24.50
2018-04-15T15:23:09.692Z,24.43
2018-04-15T15:25:37.660Z,25.10
2018-04-15T15:28:04.567Z,24.90
2018-04-15T15:30:30.808Z,24.47
2018-04-15T15:32:57.996Z,24.20
2018-04-15T15:35:27.856Z,23.63
2018-04-15T15:37:54.030Z,24.67
2018-04-15T15:40:20.977Z,21.87
2018-04-15T15:42:47.615Z,21.70
2018-04-15T15:45:13.895Z,21.77
2018-04-15T15:47:40.134Z,21.43
2018-04-15T15:50:06.372Z,26.70
2018-04-15T15:52:32.595Z,21.80
2018-04-15T15:54:59.783Z,20.37
2018-04-15T15:57:26.147Z,21.83
2018-04-15T15:59:52.569Z,22.23
2018-04-15T16:02:18.888Z,24.03
2018-04-15T16:04:45.082Z,20.53
2018-04-15T16:07:11.336Z,22.77
2018-04-15T16:09:37.549Z,21.80
2018-04-15T16:12:04.587Z,17.43
2018-04-15T16:14:31.627Z,17.57
2018-04-15T16:16:57.852Z,17.00
2018-04-15T16:19:24.066Z,21.17
2018-04-15T16:21:50.595Z,18.33
2018-04-15T16:24:16.919Z,19.10
2018-04-15T16:26:43.081Z,18.20
2018-04-15T16:29:09.404Z,19.80
2018-04-15T16:31:35.685Z,20.20
2018-04-15T16:34:02.732Z,18.50
2018-04-15T16:36:29.085Z,18.70
2018-04-15T16:38:55.389Z,21.07
2018-04-15T16:41:21.559Z,20.87
2018-04-15T16:43:47.804Z,23.67
2018-04-15T16:46:14.056Z,24.13
2018-04-15T16:48:40.402Z,23.20
2018-04-15T16:51:06.694Z,22.70
2018-04-15T16:53:32.887Z,22.30
2018-04-15T16:55:59.874Z,23.50
2018-04-15T16:58:26.132Z,23.30
2018-04-15T17:00:52.421Z,20.77
2018-04-15T17:03:18.663Z,18.63
2018-04-15T17:05:50.375Z,24.70
2018-04-15T17:08:16.547Z,18.10
2018-04-15T17:10:43.478Z,19.03
2018-04-15T17:13:09.643Z,19.90
2018-04-15T17:15:35.850Z,21.30
2018-04-15T17:18:02.807Z,21.30
2018-04-15T17:20:29.064Z,19.67
2018-04-15T17:22:55.256Z,18.83
2018-04-15T17:25:22.242Z,19.23
2018-04-15T17:27:48.467Z,20.73
2018-04-15T17:30:14.715Z,20.17
2018-04-15T17:32:41.019Z,18.97
2018-04-15T17:35:07.200Z,18.30
2018-04-15T17:37:34.164Z,22.37
2018-04-15T17:40:01.157Z,20.53
2018-04-15T17:42:28.360Z,17.53
2018-04-15T17:44:55.355Z,21.03
2018-04-15T17:47:21.579Z,19.30
2018-04-15T17:49:47.716Z,20.23
2018-04-15T17:52:13.875Z,21.03
2018-04-15T17:54:40.104Z,19.67
2018-04-15T17:57:07.104Z,20.50
2018-04-15T17:59:33.240Z,21.10
2018-04-15T18:02:00.181Z,21.27
2018-04-15T18:04:26.408Z,22.67
2018-04-15T18:06:52.581Z,22.37
2018-04-15T18:09:19.455Z,24.17
2018-04-15T18:11:45.653Z,23.03
2018-04-15T18:14:12.625Z,23.57
2018-04-15T18:16:38.775Z,26.37
2018-04-15T18:19:05.381Z,19.80
2018-04-15T18:21:31.546Z,25.03
2018-04-15T18:23:57.816Z,22.30
2018-04-15T18:26:24.824Z,27.60
2018-04-15T18:28:50.975Z,26.97
2018-04-15T18:31:17.215Z,20.40
2018-04-15T18:33:44.115Z,19.77
2018-04-15T18:36:10.651Z,20.70
2018-04-15T18:38:36.914Z,18.57
2018-04-15T18:41:03.125Z,19.90
2018-04-15T18:43:29.375Z,19.87
2018-04-15T18:45:55.603Z,24.20
2018-04-15T18:48:21.865Z,22.07
2018-04-15T18:50:48.044Z,22.90
2018-04-15T18:53:14.278Z,19.50
2018-04-15T18:55:40.689Z,20.17
2018-04-15T18:58:06.959Z,20.93
2018-04-15T19:00:33.891Z,20.30
2018-04-15T19:03:00.034Z,25.40
2018-04-15T19:05:26.921Z,24.87
2018-04-15T19:07:54.129Z,21.53
2018-04-15T19:10:21.080Z,22.13
2018-04-15T19:12:47.980Z,30.03
2018-04-15T19:15:14.116Z,24.80
2018-04-15T19:17:40.360Z,27.90
2018-04-15T19:20:06.576Z,32.70
2018-04-15T19:22:32.867Z,32.40
2018-04-15T19:24:59.140Z,26.53
2018-04-15T19:27:25.383Z,32.87
2018-04-15T19:29:52.312Z,23.30
2018-04-15T19:32:18.667Z,22.33
2018-04-15T19:34:45.656Z,25.87
2018-04-15T19:37:11.976Z,21.17
2018-04-15T19:39:38.172Z,22.33
2018-04-15T19:42:05.191Z,26.07
2018-04-15T19:44:31.349Z,28.53
2018-04-15T19:46:57.645Z,22.37
2018-04-15T19:49:23.940Z,24.40
2018-04-15T19:51:50.168Z,28.60
2018-04-15T19:54:16.364Z,25.87
2018-04-15T19:56:42.580Z,22.27
2018-04-15T19:59:09.467Z,26.97
2018-04-15T20:01:35.705Z,25.70
2018-04-15T20:04:01.864Z,26.90
2018-04-15T20:06:28.036Z,22.07
2018-04-15T20:08:54.218Z,28.60
2018-04-15T20:11:20.451Z,26.73
2018-04-15T20:13:46.703Z,30.30
2018-04-15T20:16:12.968Z,37.37
2018-04-15T20:18:39.224Z,52.70
2018-04-15T20:21:05.450Z,43.17
2018-04-15T20:23:31.714Z,35.53
2018-04-15T20:25:58.613Z,29.67
2018-04-15T20:28:24.811Z,27.70
2018-04-15T20:30:50.995Z,30.57
2018-04-15T20:33:17.148Z,27.40
2018-04-15T20:35:43.285Z,35.67
2018-04-15T20:38:09.417Z,67.53
2018-04-15T20:40:35.706Z,30.10
2018-04-15T20:43:02.644Z,31.47
2018-04-15T20:45:43.915Z,26.80
2018-04-15T20:48:10.084Z,27.00
2018-04-15T20:50:36.324Z,25.53
2018-04-15T20:53:02.512Z,25.53
2018-04-15T20:55:29.438Z,26.33
2018-04-15T20:57:55.660Z,24.20
2018-04-15T21:00:21.900Z,30.60
2018-04-15T21:02:48.054Z,27.20
2018-04-15T21:05:15.009Z,27.90
2018-04-15T21:07:41.256Z,22.77
2018-04-15T21:10:07.495Z,23.73
2018-04-15T21:12:33.775Z,24.07
2018-04-15T21:15:00.690Z,26.60
2018-04-15T21:17:27.859Z,23.60
2018-04-15T21:19:54.188Z,29.90
2018-04-15T21:22:21.278Z,47.50
2018-04-15T21:24:47.586Z,33.03
2018-04-15T21:27:13.852Z,26.27
2018-04-15T21:29:41.072Z,30.73
2018-04-15T21:32:08.063Z,29.10
2018-04-15T21:34:34.260Z,27.27
2018-04-15T21:37:00.465Z,30.83
2018-04-15T21:39:27.410Z,40.27
2018-04-15T21:41:54.412Z,32.87
2018-04-15T21:44:20.640Z,35.00
2018-04-15T21:46:48.866Z,43.60
2018-04-15T21:49:30.704Z,35.03
2018-04-15T21:51:56.857Z,36.37
2018-04-15T21:54:23.805Z,43.83
2018-04-15T21:56:50.000Z,33.87
2018-04-15T21:59:16.204Z,38.03
2018-04-15T22:01:42.464Z,37.53
2018-04-15T22:04:08.697Z,33.70
2018-04-15T22:06:34.961Z,36.07
2018-04-15T22:09:02.132Z,37.30
2018-04-15T22:11:40.644Z,30.60
2018-04-15T22:14:07.609Z,32.40
2018-04-15T22:16:33.827Z,41.03
2018-04-15T22:19:00.437Z,32.93
2018-04-15T22:21:27.417Z,33.13
2018-04-15T22:23:53.625Z,35.50
2018-04-15T22:26:20.572Z,36.27
2018-04-15T22:28:48.913Z,43.40
2018-04-15T22:31:16.194Z,43.47
2018-04-15T22:33:43.180Z,43.53
2018-04-15T22:36:09.433Z,47.53
2018-04-15T22:38:35.660Z,45.07
2018-04-15T22:41:01.924Z,43.07
2018-04-15T22:43:28.849Z,39.60
2018-04-15T22:45:55.096Z,39.87
2018-04-15T22:48:22.086Z,35.33
2018-04-15T22:50:49.028Z,35.77
2018-04-15T22:53:15.295Z,43.43
2018-04-15T22:55:41.521Z,41.30
2018-04-15T22:58:07.764Z,39.80
2018-04-15T23:00:33.986Z,38.57
2018-04-15T23:03:00.223Z,38.40
2018-04-15T23:05:27.196Z,38.63
2018-04-15T23:07:53.472Z,42.70
2018-04-15T23:10:19.716Z,42.70
2018-04-15T23:12:45.911Z,44.10
2018-04-15T23:15:12.147Z,44.10
2018-04-15T23:17:38.434Z,40.67
2018-04-15T23:20:05.405Z,47.43
2018-04-15T23:22:32.577Z,44.87
2018-04-15T23:24:58.768Z,45.07
2018-04-15T23:27:24.999Z,48.07
2018-04-15T23:29:51.304Z,52.87
2018-04-15T23:32:18.216Z,51.53
2018-04-15T23:34:44.357Z,58.57
2018-04-15T23:37:10.632Z,55.93
2018-04-15T23:39:36.856Z,55.67
2018-04-15T23:42:04.015Z,54.80
2018-04-15T23:44:31.360Z,50.40
2018-04-15T23:46:57.631Z,60.33
2018-04-15T23:49:23.844Z,55.53
2018-04-15T23:51:50.102Z,51.37
2018-04-15T23:54:16.326Z,56.10
2018-04-15T23:56:48.588Z,57.73
2018-04-15T23:59:14.793Z,58.40
